Time;durP1;ratioP1;P1;durP2;ratioP2;P2;SDS_P1;SDS_P2;PMS_P1;PMS_P2;Temp;Humidity;BMP_temperature;BMP_pressure;BME280_temperature;BME280_humidity;BME280_pressure;Samples;Min_cycle;Max_cycle;Signal;HPM_P1;HPM_P2
2022/05/31 00:00:11;;;;;;;2.08;1.63;;;;;;;;;;5081896;28;20712;-66
2022/05/31 00:02:41;;;;;;;3.00;1.70;;;;;;;;;;5079216;28;20031;-65
2022/05/31 00:05:09;;;;;;;2.28;1.83;;;;;;;;;;5080891;28;20093;-66
2022/05/31 00:07:36;;;;;;;1.85;1.75;;;;;;;;;;5081237;28;20044;-66
2022/05/31 00:10:01;;;;;;;7.90;1.60;;;;;;;;;;5080865;28;20100;-65
2022/05/31 00:12:27;;;;;;;2.70;1.67;;;;;;;;;;5078185;28;22202;-66
2022/05/31 00:14:52;;;;;;;6.63;1.73;;;;;;;;;;5080121;28;20506;-65
2022/05/31 00:17:18;;;;;;;1.50;1.40;;;;;;;;;;5079327;28;20044;-65
2022/05/31 00:19:43;;;;;;;1.60;1.50;;;;;;;;;;5080504;28;20024;-66
2022/05/31 00:22:17;;;;;;;1.50;1.40;;;;;;;;;;5079753;28;20487;-65
2022/05/31 00:24:43;;;;;;;3.72;1.67;;;;;;;;;;5081130;28;20541;-66
2022/05/31 00:27:11;;;;;;;2.45;1.42;;;;;;;;;;5081881;28;20028;-66
2022/05/31 00:29:37;;;;;;;1.88;1.60;;;;;;;;;;5063143;28;20040;-65
2022/05/31 00:32:05;;;;;;;3.60;1.40;;;;;;;;;;5080545;28;20445;-65
2022/05/31 00:34:32;;;;;;;1.88;1.77;;;;;;;;;;5060181;28;20089;-65
2022/05/31 00:36:57;;;;;;;3.58;1.60;;;;;;;;;;5060662;28;20450;-65
2022/05/31 00:39:23;;;;;;;1.80;1.70;;;;;;;;;;5080387;28;20114;-65
2022/05/31 00:42:06;;;;;;;4.57;1.60;;;;;;;;;;5081658;28;20028;-66
2022/05/31 00:44:33;;;;;;;3.80;1.80;;;;;;;;;;5045337;28;20798;-66
2022/05/31 00:47:03;;;;;;;1.80;1.70;;;;;;;;;;5081142;28;20042;-65
2022/05/31 00:49:35;;;;;;;2.15;1.67;;;;;;;;;;5081445;28;20063;-66
2022/05/31 00:52:07;;;;;;;2.53;1.80;;;;;;;;;;5063220;28;20074;-65
2022/05/31 00:54:35;;;;;;;5.97;2.17;;;;;;;;;;5061743;28;20075;-65
2022/05/31 00:57:01;;;;;;;3.45;1.83;;;;;;;;;;5080850;28;20054;-65
2022/05/31 00:59:36;;;;;;;1.90;1.70;;;;;;;;;;5081100;28;20044;-66
2022/05/31 01:02:02;;;;;;;1.60;1.50;;;;;;;;;;5062316;28;20126;-66
2022/05/31 01:04:33;;;;;;;5.05;1.65;;;;;;;;;;5075461;28;20062;-66
2022/05/31 01:06:59;;;;;;;1.77;1.50;;;;;;;;;;5060083;28;20065;-65
2022/05/31 01:09:25;;;;;;;2.03;1.70;;;;;;;;;;5080628;28;20119;-65
2022/05/31 01:12:10;;;;;;;1.70;1.60;;;;;;;;;;5080539;28;20444;-66
2022/05/31 01:14:54;;;;;;;1.73;1.63;;;;;;;;;;5080335;28;20499;-65
2022/05/31 01:17:41;;;;;;;1.90;1.65;;;;;;;;;;5079609;28;20051;-65
2022/05/31 01:20:35;;;;;;;1.40;1.30;;;;;;;;;;5024886;28;20517;-65
2022/05/31 01:23:17;;;;;;;1.58;1.48;;;;;;;;;;5062016;28;20043;-65
2022/05/31 01:26:01;;;;;;;1.52;1.42;;;;;;;;;;5062453;28;20039;-65
2022/05/31 01:29:04;;;;;;;3.92;1.77;;;;;;;;;;5044272;28;20067;-66
2022/05/31 01:31:37;;;;;;;1.75;1.65;;;;;;;;;;5078384;28;20155;-66
2022/05/31 01:34:12;;;;;;;3.03;1.80;;;;;;;;;;5080068;28;20036;-66
2022/05/31 01:36:52;;;;;;;1.75;1.63;;;;;;;;;;5080708;28;20036;-65
2022/05/31 01:39:44;;;;;;;3.05;2.00;;;;;;;;;;5079477;28;20043;-65
2022/05/31 01:42:18;;;;;;;3.40;1.87;;;;;;;;;;5057429;28;20043;-66
2022/05/31 01:44:46;;;;;;;4.32;1.90;;;;;;;;;;5079309;28;20481;-65
2022/05/31 01:47:12;;;;;;;4.95;2.10;;;;;;;;;;5078485;28;20032;-65
2022/05/31 01:49:41;;;;;;;1.73;1.63;;;;;;;;;;5079088;28;20055;-65
2022/05/31 01:52:08;;;;;;;3.78;1.77;;;;;;;;;;5062043;28;20556;-65
2022/05/31 01:54:35;;;;;;;2.20;2.00;;;;;;;;;;5061114;28;20139;-66
2022/05/31 01:57:03;;;;;;;2.15;2.00;;;;;;;;;;5078446;28;20073;-66
2022/05/31 01:59:34;;;;;;;2.20;2.00;;;;;;;;;;5079876;28;20602;-66
2022/05/31 02:02:02;;;;;;;2.83;2.10;;;;;;;;;;5077819;28;20039;-66
2022/05/31 02:04:27;;;;;;;2.38;2.03;;;;;;;;;;5079917;28;20079;-65
2022/05/31 02:07:10;;;;;;;2.40;2.20;;;;;;;;;;5080068;28;20071;-66
2022/05/31 02:09:39;;;;;;;1.98;1.88;;;;;;;;;;5079099;28;20047;-66
2022/05/31 02:12:06;;;;;;;2.60;1.88;;;;;;;;;;5077607;28;20086;-66
2022/05/31 02:14:33;;;;;;;2.40;2.20;;;;;;;;;;5077514;28;20040;-66
2022/05/31 02:16:59;;;;;;;2.13;1.92;;;;;;;;;;5061869;28;20492;-65
2022/05/31 02:19:59;;;;;;;2.28;1.90;;;;;;;;;;4997732;28;20054;-65
2022/05/31 02:22:33;;;;;;;2.22;2.00;;;;;;;;;;5051540;28;20389;-65
2022/05/31 02:24:58;;;;;;;3.28;2.20;;;;;;;;;;5061152;28;20028;-65
2022/05/31 02:27:24;;;;;;;2.55;2.15;;;;;;;;;;5062237;28;20039;-66
2022/05/31 02:29:50;;;;;;;2.70;2.38;;;;;;;;;;5078991;28;20043;-65
2022/05/31 02:32:15;;;;;;;2.20;2.00;;;;;;;;;;5080407;28;20071;-65
2022/05/31 02:34:47;;;;;;;4.22;2.30;;;;;;;;;;5060550;28;20054;-65
2022/05/31 02:37:17;;;;;;;2.50;2.30;;;;;;;;;;5064800;28;20058;-65
2022/05/31 02:39:43;;;;;;;3.53;2.13;;;;;;;;;;5082349;28;20032;-65
2022/05/31 02:42:11;;;;;;;2.70;1.90;;;;;;;;;;5065020;28;20489;-65
2022/05/31 02:44:37;;;;;;;3.65;1.92;;;;;;;;;;5063275;28;20032;-65
2022/05/31 02:47:03;;;;;;;7.07;2.20;;;;;;;;;;5064377;28;20121;-66
2022/05/31 02:49:29;;;;;;;3.38;2.50;;;;;;;;;;5065026;28;20074;-66
2022/05/31 02:51:58;;;;;;;2.03;1.90;;;;;;;;;;5065714;28;20059;-66
2022/05/31 02:54:23;;;;;;;2.28;2.10;;;;;;;;;;5081385;28;20489;-66
2022/05/31 02:57:08;;;;;;;2.03;1.83;;;;;;;;;;5082478;28;20058;-66
2022/05/31 02:59:51;;;;;;;2.47;2.00;;;;;;;;;;5083493;28;20519;-66
2022/05/31 03:02:40;;;;;;;2.92;1.85;;;;;;;;;;5083123;28;20043;-66
2022/05/31 03:05:15;;;;;;;2.08;1.90;;;;;;;;;;5080539;28;20109;-66
2022/05/31 03:08:13;;;;;;;4.40;1.98;;;;;;;;;;5040464;28;20051;-66
2022/05/31 03:10:52;;;;;;;5.60;1.95;;;;;;;;;;5081759;28;20036;-66
2022/05/31 03:13:24;;;;;;;2.00;1.90;;;;;;;;;;5080934;28;20502;-66
2022/05/31 03:15:53;;;;;;;2.20;2.00;;;;;;;;;;5079182;28;20040;-66
2022/05/31 03:18:23;;;;;;;5.00;2.22;;;;;;;;;;5062926;28;20446;-66
2022/05/31 03:20:51;;;;;;;2.20;2.10;;;;;;;;;;5057056;28;20033;-66
2022/05/31 03:23:25;;;;;;;2.45;2.10;;;;;;;;;;5082838;28;20045;-66
2022/05/31 03:25:53;;;;;;;3.20;2.90;;;;;;;;;;5056485;28;20424;-66
2022/05/31 03:28:20;;;;;;;2.22;2.03;;;;;;;;;;5063362;28;20038;-66
2022/05/31 03:30:45;;;;;;;1.95;1.85;;;;;;;;;;5082745;28;20424;-66
2022/05/31 03:33:12;;;;;;;2.42;2.08;;;;;;;;;;5083123;28;20040;-66
2022/05/31 03:35:38;;;;;;;3.33;1.98;;;;;;;;;;5081854;28;20401;-66
2022/05/31 03:38:12;;;;;;;2.17;1.98;;;;;;;;;;5081746;28;20081;-66
2022/05/31 03:40:56;;;;;;;2.28;2.08;;;;;;;;;;5062543;28;20035;-66
2022/05/31 03:43:25;;;;;;;2.40;2.15;;;;;;;;;;5063789;28;20036;-66
2022/05/31 03:46:14;;;;;;;5.20;1.90;;;;;;;;;;5081602;28;20047;-66
2022/05/31 03:49:14;;;;;;;2.53;1.88;;;;;;;;;;5064073;28;20074;-66
2022/05/31 03:52:06;;;;;;;;;;;;;;;;;;5078942;28;20047;-66
2022/05/31 03:54:37;;;;;;;4.95;2.05;;;;;;;;;;5063655;28;19916;-66
2022/05/31 03:57:18;;;;;;;3.38;1.88;;;;;;;;;;5082287;28;20080;-66
2022/05/31 03:59:54;;;;;;;1.90;1.80;;;;;;;;;;5064561;28;20618;-66
2022/05/31 04:02:28;;;;;;;2.95;1.85;;;;;;;;;;5062811;28;20042;-66
2022/05/31 04:04:54;;;;;;;4.30;1.98;;;;;;;;;;5063735;28;20036;-66
2022/05/31 04:07:19;;;;;;;2.00;1.80;;;;;;;;;;5062929;28;20039;-66
2022/05/31 04:09:45;;;;;;;2.03;1.88;;;;;;;;;;5063022;28;20599;-66
2022/05/31 04:12:11;;;;;;;1.98;1.70;;;;;;;;;;5061932;28;20414;-66
2022/05/31 04:14:57;;;;;;;2.10;1.60;;;;;;;;;;5080882;28;20869;-66
2022/05/31 04:17:22;;;;;;;3.75;1.58;;;;;;;;;;5062558;28;20028;-66
2022/05/31 04:19:48;;;;;;;1.65;1.52;;;;;;;;;;5063232;28;20181;-66
2022/05/31 04:22:15;;;;;;;1.80;1.70;;;;;;;;;;5062955;28;20019;-66
2022/05/31 04:24:41;;;;;;;2.17;1.98;;;;;;;;;;5061094;28;20043;-66
2022/05/31 04:27:25;;;;;;;3.40;1.95;;;;;;;;;;5080746;28;20043;-66
2022/05/31 04:30:09;;;;;;;2.33;1.90;;;;;;;;;;5080099;28;20126;-66
2022/05/31 04:32:54;;;;;;;2.03;1.60;;;;;;;;;;5081243;28;20048;-66
2022/05/31 04:35:28;;;;;;;3.67;1.67;;;;;;;;;;5078643;28;20127;-66
2022/05/31 04:37:53;;;;;;;3.35;1.63;;;;;;;;;;5080458;28;20185;-66
2022/05/31 04:40:28;;;;;;;2.20;1.52;;;;;;;;;;5080678;28;20967;-66
2022/05/31 04:43:25;;;;;;;3.83;1.50;;;;;;;;;;5079710;28;20699;-66
2022/05/31 04:46:19;;;;;;;1.95;1.55;;;;;;;;;;5061932;28;20028;-66
2022/05/31 04:48:57;;;;;;;;;;;;;;;;;;5049024;28;20098;-66
2022/05/31 04:51:27;;;;;;;1.92;1.80;;;;;;;;;;5081825;28;20362;-66
2022/05/31 04:53:56;;;;;;;1.50;1.40;;;;;;;;;;5063607;28;20110;-66
2022/05/31 04:56:46;;;;;;;2.08;1.83;;;;;;;;;;5061925;28;20104;-66
2022/05/31 04:59:12;;;;;;;1.77;1.55;;;;;;;;;;5062431;28;20036;-67
2022/05/31 05:01:39;;;;;;;1.40;1.30;;;;;;;;;;5062991;28;20673;-67
2022/05/31 05:04:11;;;;;;;2.10;1.90;;;;;;;;;;5062832;28;20036;-67
2022/05/31 05:06:43;;;;;;;2.40;1.70;;;;;;;;;;5062283;28;20028;-67
2022/05/31 05:09:10;;;;;;;5.85;2.20;;;;;;;;;;5073991;28;20028;-68
2022/05/31 05:11:41;;;;;;;2.53;1.50;;;;;;;;;;5079316;28;20062;-69
2022/05/31 05:14:33;;;;;;;2.83;1.73;;;;;;;;;;5073853;28;20042;-68
2022/05/31 05:17:02;;;;;;;2.63;2.00;;;;;;;;;;5076364;28;20109;-67
2022/05/31 05:19:29;;;;;;;2.60;1.85;;;;;;;;;;5076957;28;20378;-67
2022/05/31 05:21:58;;;;;;;1.73;1.63;;;;;;;;;;5078249;28;20065;-67
2022/05/31 05:24:24;;;;;;;3.28;1.55;;;;;;;;;;5078967;28;20032;-67
2022/05/31 05:27:12;;;;;;;1.52;1.42;;;;;;;;;;5079209;28;20066;-67
2022/05/31 05:32:46;;;;;;;1.80;1.70;;;;;;;;;;5060105;28;20059;-67
2022/05/31 05:35:41;;;;;;;1.58;1.48;;;;;;;;;;5069194;28;20063;-67
2022/05/31 05:38:09;;;;;;;4.45;1.67;;;;;;;;;;5061288;28;20032;-67
2022/05/31 05:40:54;;;;;;;1.88;1.40;;;;;;;;;;5078457;28;20069;-67
2022/05/31 05:43:21;;;;;;;2.47;1.50;;;;;;;;;;5076869;28;20036;-67
2022/05/31 05:45:54;;;;;;;1.45;1.35;;;;;;;;;;5060077;28;20046;-67
2022/05/31 05:48:19;;;;;;;1.42;1.30;;;;;;;;;;5060648;28;20024;-67
2022/05/31 05:50:45;;;;;;;3.28;1.40;;;;;;;;;;5061848;28;20492;-67
2022/05/31 05:53:29;;;;;;;2.35;1.55;;;;;;;;;;5079968;28;20054;-67
2022/05/31 05:56:14;;;;;;;1.85;1.40;;;;;;;;;;5079859;28;20074;-67
2022/05/31 05:58:58;;;;;;;5.28;1.55;;;;;;;;;;5080348;28;20554;-67
2022/05/31 06:01:48;;;;;;;1.70;1.60;;;;;;;;;;5077854;28;20054;-67
2022/05/31 06:04:40;;;;;;;1.52;1.42;;;;;;;;;;5059764;28;20185;-67
2022/05/31 06:07:05;;;;;;;1.95;1.75;;;;;;;;;;5078857;28;20047;-67
2022/05/31 06:09:34;;;;;;;1.50;1.40;;;;;;;;;;5078918;28;20032;-67
2022/05/31 06:12:09;;;;;;;2.58;1.60;;;;;;;;;;5079117;28;20067;-67
2022/05/31 06:14:41;;;;;;;1.40;1.30;;;;;;;;;;5079596;28;20119;-67
2022/05/31 06:17:13;;;;;;;2.70;1.67;;;;;;;;;;5065734;28;20048;-67
2022/05/31 06:19:40;;;;;;;2.35;1.30;;;;;;;;;;5083220;28;20489;-68
2022/05/31 06:22:07;;;;;;;3.25;1.50;;;;;;;;;;5083364;28;20376;-67
2022/05/31 06:24:58;;;;;;;2.47;1.50;;;;;;;;;;5071790;28;20825;-67
2022/05/31 06:27:42;;;;;;;1.55;1.38;;;;;;;;;;5083923;28;20128;-67
2022/05/31 06:30:11;;;;;;;2.78;1.80;;;;;;;;;;5082637;28;20173;-67
2022/05/31 06:32:36;;;;;;;2.40;1.38;;;;;;;;;;5082429;28;20043;-67
2022/05/31 06:35:02;;;;;;;1.42;1.33;;;;;;;;;;5083437;28;20446;-67
2022/05/31 06:37:40;;;;;;;2.45;1.38;;;;;;;;;;5082052;28;20146;-67
2022/05/31 06:40:08;;;;;;;11.07;1.60;;;;;;;;;;5065741;28;20058;-67
2022/05/31 06:42:58;;;;;;;1.73;1.48;;;;;;;;;;5081677;28;20040;-67
2022/05/31 06:45:42;;;;;;;4.32;1.48;;;;;;;;;;5083171;28;20437;-67
2022/05/31 06:48:26;;;;;;;2.15;1.40;;;;;;;;;;5082827;28;20082;-67
2022/05/31 06:51:12;;;;;;;3.38;1.55;;;;;;;;;;5083956;28;20055;-68
2022/05/31 06:57:01;;;;;;;2.25;1.40;;;;;;;;;;5082702;28;20065;-67
2022/05/31 06:59:52;;;;;;;1.45;1.35;;;;;;;;;;5078994;28;20539;-67
2022/05/31 07:02:18;;;;;;;2.22;1.50;;;;;;;;;;5065362;28;20036;-67
2022/05/31 07:04:43;;;;;;;1.65;1.38;;;;;;;;;;5063726;28;20027;-67
2022/05/31 07:07:09;;;;;;;1.75;1.48;;;;;;;;;;5065221;28;20032;-67
2022/05/31 07:09:54;;;;;;;4.68;1.50;;;;;;;;;;5081972;28;20163;-67
2022/05/31 07:12:40;;;;;;;1.58;1.35;;;;;;;;;;5083041;28;20140;-67
2022/05/31 07:15:25;;;;;;;1.90;1.20;;;;;;;;;;5082024;28;20240;-68
2022/05/31 07:18:14;;;;;;;4.20;1.40;;;;;;;;;;5083029;28;20136;-68
2022/05/31 07:20:41;;;;;;;1.42;1.33;;;;;;;;;;5080475;28;20044;-67
2022/05/31 07:23:06;;;;;;;1.75;1.50;;;;;;;;;;5064168;28;20561;-68
2022/05/31 07:25:34;;;;;;;2.72;1.30;;;;;;;;;;5063758;28;20042;-68
2022/05/31 07:28:08;;;;;;;1.40;1.33;;;;;;;;;;5064885;28;20081;-67
2022/05/31 07:30:35;;;;;;;1.65;1.30;;;;;;;;;;5064302;28;20089;-68
2022/05/31 07:33:02;;;;;;;1.63;1.20;;;;;;;;;;5081185;28;20114;-67
2022/05/31 07:35:29;;;;;;;2.17;1.60;;;;;;;;;;5080749;28;20131;-68
2022/05/31 07:37:56;;;;;;;1.42;1.27;;;;;;;;;;5047753;28;20032;-68
2022/05/31 07:40:24;;;;;;;2.42;1.20;;;;;;;;;;5064625;28;20036;-68
2022/05/31 07:42:49;;;;;;;2.00;1.38;;;;;;;;;;5080131;28;20038;-68
2022/05/31 07:45:15;;;;;;;5.43;1.73;;;;;;;;;;5080960;28;20040;-67
2022/05/31 07:47:40;;;;;;;2.20;1.40;;;;;;;;;;5081869;28;20562;-67
2022/05/31 07:50:06;;;;;;;1.60;1.27;;;;;;;;;;5082947;28;20501;-68
2022/05/31 07:53:01;;;;;;;1.20;1.20;;;;;;;;;;5025779;28;20595;-68
2022/05/31 07:55:36;;;;;;;1.33;1.10;;;;;;;;;;5081841;28;20074;-67
2022/05/31 07:58:32;;;;;;;1.60;1.50;;;;;;;;;;5081342;28;20117;-68
2022/05/31 08:01:22;;;;;;;2.80;1.60;;;;;;;;;;5082645;28;20090;-67
2022/05/31 08:03:51;;;;;;;2.03;1.57;;;;;;;;;;5063409;28;20111;-68
2022/05/31 08:06:20;;;;;;;2.95;1.58;;;;;;;;;;5081417;28;20059;-68
2022/05/31 08:08:46;;;;;;;1.63;1.52;;;;;;;;;;5081473;28;20039;-68
2022/05/31 08:11:18;;;;;;;4.07;1.60;;;;;;;;;;5082602;28;20507;-68
2022/05/31 08:13:45;;;;;;;3.95;1.50;;;;;;;;;;5081529;28;20028;-67
2022/05/31 08:16:12;;;;;;;2.05;1.70;;;;;;;;;;5080547;28;20036;-68
2022/05/31 08:18:39;;;;;;;1.50;1.40;;;;;;;;;;5080151;28;20050;-68
2022/05/31 08:21:07;;;;;;;1.65;1.50;;;;;;;;;;5081860;28;20066;-68
2022/05/31 08:23:34;;;;;;;1.40;1.30;;;;;;;;;;5081734;28;20401;-68
2022/05/31 08:26:01;;;;;;;6.65;1.20;;;;;;;;;;5061025;28;20051;-68
2022/05/31 08:28:26;;;;;;;1.20;1.20;;;;;;;;;;5080682;28;20078;-67
2022/05/31 08:30:56;;;;;;;2.03;1.23;;;;;;;;;;5080424;28;20122;-67
2022/05/31 08:33:24;;;;;;;2.65;1.55;;;;;;;;;;5080970;28;20861;-67
2022/05/31 08:35:50;;;;;;;1.42;1.17;;;;;;;;;;5081103;28;20032;-68
2022/05/31 08:38:16;;;;;;;5.25;1.42;;;;;;;;;;5080572;28;20058;-68
2022/05/31 08:41:20;;;;;;;1.52;1.35;;;;;;;;;;5079841;28;20043;-67
2022/05/31 08:43:45;;;;;;;3.10;1.38;;;;;;;;;;5075386;28;20040;-67
2022/05/31 08:46:33;;;;;;;1.55;1.30;;;;;;;;;;5081196;28;20503;-67
2022/05/31 08:49:09;;;;;;;1.77;1.40;;;;;;;;;;5080125;28;20127;-67
2022/05/31 08:52:03;;;;;;;4.78;1.33;;;;;;;;;;5080553;28;20052;-68
2022/05/31 08:57:33;;;;;;;3.20;1.20;;;;;;;;;;5062881;28;20032;-70
2022/05/31 09:00:11;;;;;;;1.75;1.65;;;;;;;;;;5080363;28;20047;-67
2022/05/31 09:02:58;;;;;;;1.10;1.10;;;;;;;;;;5080369;28;20034;-69
2022/05/31 09:05:34;;;;;;;1.45;1.35;;;;;;;;;;5080681;28;20396;-68
2022/05/31 09:08:16;;;;;;;4.00;1.38;;;;;;;;;;5081053;28;20093;-67
2022/05/31 09:10:55;;;;;;;1.35;1.10;;;;;;;;;;5080235;28;20400;-67
2022/05/31 09:13:30;;;;;;;3.22;1.15;;;;;;;;;;5078538;28;20032;-67
2022/05/31 09:16:01;;;;;;;2.75;1.20;;;;;;;;;;5078503;28;20027;-67
2022/05/31 09:18:59;;;;;;;2.10;1.33;;;;;;;;;;5079025;28;21252;-67
2022/05/31 09:21:41;;;;;;;3.17;1.30;;;;;;;;;;5078082;28;20085;-67
2022/05/31 09:24:19;;;;;;;2.70;1.55;;;;;;;;;;5078123;28;20382;-66
2022/05/31 09:26:59;;;;;;;1.88;1.40;;;;;;;;;;5078726;28;20315;-66
2022/05/31 09:29:43;;;;;;;1.60;1.48;;;;;;;;;;5080519;28;20542;-67
2022/05/31 09:32:36;;;;;;;3.67;1.40;;;;;;;;;;5080037;28;20118;-66
2022/05/31 09:35:27;;;;;;;1.20;1.10;;;;;;;;;;5079264;28;20134;-66
2022/05/31 09:38:10;;;;;;;2.53;1.10;;;;;;;;;;5080209;28;20047;-66
2022/05/31 09:40:44;;;;;;;1.10;1.10;;;;;;;;;;5081191;28;20093;-65
2022/05/31 09:43:25;;;;;;;2.00;0.93;;;;;;;;;;5080196;28;20059;-68
2022/05/31 09:46:00;;;;;;;2.15;1.10;;;;;;;;;;5082062;28;20484;-66
2022/05/31 09:48:27;;;;;;;2.05;1.05;;;;;;;;;;5085162;28;20036;-66
2022/05/31 09:51:09;;;;;;;1.95;1.10;;;;;;;;;;5084397;28;20480;-66
2022/05/31 10:00:15;;;;;;;2.20;1.30;;;;;;;;;;5001163;28;20099;-66
2022/05/31 10:03:09;;;;;;;1.95;1.00;;;;;;;;;;5078729;28;20898;-68
2022/05/31 10:05:36;;;;;;;2.20;1.08;;;;;;;;;;5064710;28;20547;-66
2022/05/31 10:08:03;;;;;;;1.95;0.90;;;;;;;;;;5084569;28;20032;-66
2022/05/31 10:10:32;;;;;;;4.22;1.10;;;;;;;;;;5084315;28;20091;-68
2022/05/31 10:13:01;;;;;;;2.25;1.27;;;;;;;;;;5066589;28;20031;-68
2022/05/31 10:15:50;;;;;;;2.67;1.15;;;;;;;;;;5082627;28;20055;-66
2022/05/31 10:18:28;;;;;;;1.25;1.15;;;;;;;;;;5081658;28;20039;-68
2022/05/31 10:21:07;;;;;;;0.90;0.90;;;;;;;;;;5083473;28;20043;-67
2022/05/31 10:23:39;;;;;;;1.30;1.20;;;;;;;;;;5084339;28;20165;-67
2022/05/31 10:26:25;;;;;;;1.10;1.00;;;;;;;;;;5082697;28;20084;-67
2022/05/31 10:29:27;;;;;;;2.05;1.05;;;;;;;;;;5084053;28;20747;-67
2022/05/31 10:32:32;;;;;;;1.27;1.13;;;;;;;;;;4963569;28;20073;-68
2022/05/31 10:35:12;;;;;;;1.40;0.98;;;;;;;;;;5053882;28;20043;-68
2022/05/31 10:37:49;;;;;;;1.50;0.95;;;;;;;;;;5082531;28;20040;-67
2022/05/31 10:40:20;;;;;;;1.00;0.93;;;;;;;;;;5083506;28;20040;-68
2022/05/31 10:42:50;;;;;;;1.73;1.10;;;;;;;;;;5084000;28;20650;-67
2022/05/31 10:45:26;;;;;;;1.73;1.10;;;;;;;;;;5083505;28;20134;-67
2022/05/31 10:47:55;;;;;;;2.47;1.00;;;;;;;;;;5083204;28;20040;-68
2022/05/31 10:50:33;;;;;;;1.80;0.80;;;;;;;;;;5082787;28;20556;-67
2022/05/31 10:53:17;;;;;;;1.00;0.90;;;;;;;;;;5083545;28;20075;-68
2022/05/31 10:55:52;;;;;;;9.13;1.00;;;;;;;;;;5083110;28;20048;-67
2022/05/31 10:58:42;;;;;;;2.75;1.33;;;;;;;;;;5082048;28;20032;-68
2022/05/31 11:01:23;;;;;;;0.82;0.60;;;;;;;;;;5082109;28;20074;-68
2022/05/31 11:04:05;;;;;;;0.65;0.65;;;;;;;;;;5083463;28;20032;-68
2022/05/31 11:06:40;;;;;;;0.80;0.80;;;;;;;;;;5082638;28;20036;-68
2022/05/31 11:12:35;;;;;;;1.08;1.00;;;;;;;;;;5082582;28;20273;-69
2022/05/31 11:15:17;;;;;;;0.88;0.88;;;;;;;;;;5082960;28;20871;-69
2022/05/31 11:17:58;;;;;;;1.10;0.75;;;;;;;;;;5083091;28;20520;-68
2022/05/31 11:20:57;;;;;;;0.77;0.77;;;;;;;;;;5082211;28;20044;-68
2022/05/31 11:23:52;;;;;;;1.02;0.82;;;;;;;;;;5080419;28;20119;-68
2022/05/31 11:26:50;;;;;;;2.40;0.90;;;;;;;;;;5080570;28;20119;-68
2022/05/31 11:29:41;;;;;;;1.63;0.90;;;;;;;;;;5034669;28;20051;-68
2022/05/31 11:32:35;;;;;;;2.65;0.80;;;;;;;;;;5080675;28;20114;-68
2022/05/31 11:35:13;;;;;;;2.55;0.98;;;;;;;;;;5067837;28;20067;-67
2022/05/31 11:37:43;;;;;;;1.10;0.90;;;;;;;;;;5080931;28;20051;-68
2022/05/31 11:40:17;;;;;;;5.60;0.80;;;;;;;;;;5081927;28;20040;-68
2022/05/31 11:43:09;;;;;;;1.20;0.95;;;;;;;;;;5079310;28;20585;-68
2022/05/31 11:45:44;;;;;;;0.80;0.80;;;;;;;;;;5080774;28;20750;-68
2022/05/31 11:48:35;;;;;;;1.30;1.00;;;;;;;;;;5081227;28;20520;-68
2022/05/31 11:51:04;;;;;;;1.92;0.90;;;;;;;;;;5082005;28;20040;-68
2022/05/31 11:53:29;;;;;;;0.80;0.80;;;;;;;;;;5078961;28;20050;-68
2022/05/31 11:56:17;;;;;;;0.88;0.80;;;;;;;;;;5079663;28;20091;-68
2022/05/31 11:59:04;;;;;;;1.30;1.00;;;;;;;;;;5080778;28;20031;-67
2022/05/31 12:01:34;;;;;;;0.93;0.90;;;;;;;;;;5080085;28;20116;-67
2022/05/31 12:04:32;;;;;;;4.22;1.10;;;;;;;;;;5079590;28;20398;-67
2022/05/31 12:07:08;;;;;;;2.33;1.13;;;;;;;;;;5077766;28;20047;-67
2022/05/31 12:09:43;;;;;;;4.47;1.05;;;;;;;;;;5078577;28;20035;-67
2022/05/31 12:12:15;;;;;;;4.97;0.90;;;;;;;;;;5080024;28;20400;-68
2022/05/31 12:14:44;;;;;;;1.70;0.90;;;;;;;;;;5060943;28;20032;-67
2022/05/31 12:17:11;;;;;;;1.75;0.88;;;;;;;;;;5078255;28;20484;-67
2022/05/31 12:19:56;;;;;;;1.00;0.90;;;;;;;;;;5078689;28;20035;-68
2022/05/31 12:22:26;;;;;;;6.63;1.48;;;;;;;;;;5080005;28;20044;-68
2022/05/31 12:24:58;;;;;;;1.25;0.80;;;;;;;;;;5080209;28;20721;-67
2022/05/31 12:27:48;;;;;;;1.85;1.00;;;;;;;;;;5079617;28;20040;-67
2022/05/31 12:30:23;;;;;;;3.65;1.00;;;;;;;;;;5081916;28;20031;-67
2022/05/31 12:32:53;;;;;;;1.58;0.90;;;;;;;;;;5081407;28;20113;-67
2022/05/31 12:35:30;;;;;;;4.20;1.10;;;;;;;;;;5080796;28;20040;-67
2022/05/31 12:38:01;;;;;;;1.08;0.80;;;;;;;;;;5081808;28;20516;-67
2022/05/31 12:40:33;;;;;;;1.27;1.00;;;;;;;;;;5077568;28;20036;-66
2022/05/31 12:43:06;;;;;;;2.85;0.98;;;;;;;;;;5081426;28;20196;-67
2022/05/31 12:45:32;;;;;;;1.52;0.93;;;;;;;;;;5080065;28;20113;-66
2022/05/31 12:48:00;;;;;;;1.70;1.23;;;;;;;;;;5081487;28;20086;-66
2022/05/31 12:50:43;;;;;;;1.60;1.02;;;;;;;;;;5080939;28;20036;-66
2022/05/31 12:55:36;;;;;;;1.48;0.90;;;;;;;;;;5080928;28;20122;-66
2022/05/31 12:58:29;;;;;;;4.25;0.90;;;;;;;;;;5080657;28;20116;-67
2022/05/31 13:01:04;;;;;;;2.40;1.20;;;;;;;;;;5081029;28;20040;-67
2022/05/31 13:03:32;;;;;;;3.95;1.00;;;;;;;;;;5080926;28;20503;-66
2022/05/31 13:06:00;;;;;;;3.40;1.08;;;;;;;;;;5080171;28;20542;-67
2022/05/31 13:09:00;;;;;;;1.05;0.95;;;;;;;;;;5080193;28;20036;-67
2022/05/31 13:20:00;;;;;;;1.85;1.00;;;;;;;;;;5079990;28;21015;-67
2022/05/31 13:22:26;;;;;;;5.47;1.00;;;;;;;;;;5079859;28;21789;-67
2022/05/31 13:25:01;;;;;;;1.17;1.00;;;;;;;;;;5081027;28;20122;-67
2022/05/31 13:27:29;;;;;;;2.45;1.25;;;;;;;;;;5080450;28;20040;-66
2022/05/31 13:30:01;;;;;;;5.03;1.08;;;;;;;;;;5080183;28;20515;-66
2022/05/31 13:32:30;;;;;;;;;;;;;;;;;;5081162;28;20035;-67
2022/05/31 13:34:56;;;;;;;2.83;1.40;;;;;;;;;;5079974;28;19927;-69
2022/05/31 13:37:22;;;;;;;1.77;1.08;;;;;;;;;;5079732;28;20040;-69
2022/05/31 13:39:49;;;;;;;4.65;1.20;;;;;;;;;;5080358;28;20043;-69
2022/05/31 13:42:21;;;;;;;2.55;1.20;;;;;;;;;;5081300;28;20373;-67
2022/05/31 13:44:46;;;;;;;3.28;1.23;;;;;;;;;;5079991;28;20492;-68
2022/05/31 13:47:18;;;;;;;5.32;1.60;;;;;;;;;;5079601;28;20093;-67
2022/05/31 13:49:45;;;;;;;6.68;1.02;;;;;;;;;;5079669;28;20032;-67
2022/05/31 13:52:24;;;;;;;3.55;1.25;;;;;;;;;;5080504;28;20063;-68
2022/05/31 13:54:51;;;;;;;13.80;1.40;;;;;;;;;;5080644;28;20079;-68
2022/05/31 13:57:21;;;;;;;2.40;1.00;;;;;;;;;;5078850;28;20831;-68
2022/05/31 13:59:55;;;;;;;1.88;1.15;;;;;;;;;;5080155;28;20496;-68
2022/05/31 14:02:49;;;;;;;4.10;1.10;;;;;;;;;;5078544;28;20650;-68
2022/05/31 14:05:24;;;;;;;3.28;1.45;;;;;;;;;;5080837;28;20151;-68
2022/05/31 14:07:50;;;;;;;1.33;1.00;;;;;;;;;;5079329;28;20150;-68
2022/05/31 14:10:21;;;;;;;1.25;0.90;;;;;;;;;;5080372;28;20028;-69
2022/05/31 14:12:48;;;;;;;10.38;1.98;;;;;;;;;;5079907;28;20050;-68
2022/05/31 14:15:24;;;;;;;8.15;1.70;;;;;;;;;;5080021;28;20963;-68
2022/05/31 14:17:50;;;;;;;3.45;1.10;;;;;;;;;;5078795;28;20036;-68
2022/05/31 14:20:25;;;;;;;2.50;1.30;;;;;;;;;;5080129;28;20369;-67
2022/05/31 14:22:57;;;;;;;2.47;1.08;;;;;;;;;;5079316;28;20040;-69
2022/05/31 14:25:24;;;;;;;1.52;1.10;;;;;;;;;;5060968;28;20290;-68
2022/05/31 14:27:50;;;;;;;4.32;1.30;;;;;;;;;;5080266;28;20051;-67
2022/05/31 14:30:38;;;;;;;2.47;1.33;;;;;;;;;;5079447;28;20081;-68
2022/05/31 14:33:07;;;;;;;2.15;1.52;;;;;;;;;;5082309;28;20040;-69
2022/05/31 14:35:41;;;;;;;3.80;1.27;;;;;;;;;;5083288;28;20035;-69
2022/05/31 14:38:13;;;;;;;4.40;1.30;;;;;;;;;;5083764;28;20119;-68
2022/05/31 14:40:41;;;;;;;2.00;1.10;;;;;;;;;;5082915;28;20044;-69
2022/05/31 14:43:25;;;;;;;5.22;1.55;;;;;;;;;;5082844;28;20042;-67
2022/05/31 14:45:51;;;;;;;2.22;1.25;;;;;;;;;;5082578;28;20063;-69
2022/05/31 14:48:35;;;;;;;3.63;1.23;;;;;;;;;;5083701;28;20023;-68
2022/05/31 14:51:09;;;;;;;2.95;1.50;;;;;;;;;;5082368;28;20454;-68
2022/05/31 14:53:37;;;;;;;4.45;1.20;;;;;;;;;;5082379;28;20040;-68
2022/05/31 14:56:03;;;;;;;1.02;0.93;;;;;;;;;;5083221;28;20031;-69
2022/05/31 14:58:40;;;;;;;1.60;1.13;;;;;;;;;;5080976;28;20036;-68
2022/05/31 15:01:28;;;;;;;9.48;1.50;;;;;;;;;;5081678;28;20032;-68
2022/05/31 15:04:10;;;;;;;2.30;1.33;;;;;;;;;;5081877;28;20051;-67
2022/05/31 15:06:37;;;;;;;;;;;;;;;;;;5081513;28;20039;-68
2022/05/31 15:09:15;;;;;;;3.30;1.40;;;;;;;;;;5082101;28;19916;-68
2022/05/31 15:19:53;;;;;;;5.40;1.30;;;;;;;;;;5081623;28;20062;-68
2022/05/31 15:22:24;;;;;;;5.88;1.38;;;;;;;;;;5081112;28;20043;-67
2022/05/31 15:24:53;;;;;;;3.92;1.27;;;;;;;;;;5081403;28;20663;-66
2022/05/31 15:27:24;;;;;;;2.25;1.23;;;;;;;;;;5081465;28;20700;-67
2022/05/31 15:29:51;;;;;;;3.40;1.20;;;;;;;;;;5082272;28;20046;-67
2022/05/31 15:32:18;;;;;;;4.03;1.33;;;;;;;;;;5081880;28;20212;-67
2022/05/31 15:34:43;;;;;;;2.00;1.30;;;;;;;;;;5079904;28;20028;-67
2022/05/31 15:37:10;;;;;;;3.05;1.10;;;;;;;;;;5081322;28;20074;-66
2022/05/31 15:39:36;;;;;;;2.40;1.15;;;;;;;;;;5063145;28;20047;-66
2022/05/31 15:42:04;;;;;;;1.80;1.30;;;;;;;;;;5081534;28;20054;-67
2022/05/31 15:44:34;;;;;;;3.10;1.13;;;;;;;;;;5080339;28;20507;-67
2022/05/31 15:47:00;;;;;;;1.83;1.15;;;;;;;;;;5080941;28;20040;-67
2022/05/31 15:49:26;;;;;;;6.03;1.38;;;;;;;;;;5080892;28;20165;-67
2022/05/31 15:51:52;;;;;;;0.93;0.93;;;;;;;;;;5081469;28;20134;-67
2022/05/31 15:54:24;;;;;;;8.40;1.23;;;;;;;;;;5080200;28;20565;-66
2022/05/31 15:56:51;;;;;;;3.33;1.00;;;;;;;;;;5079890;28;20047;-66
2022/05/31 15:59:37;;;;;;;1.70;1.10;;;;;;;;;;5081794;28;20096;-66
2022/05/31 16:02:04;;;;;;;1.90;1.10;;;;;;;;;;5082104;28;20039;-66
2022/05/31 16:04:30;;;;;;;7.07;1.13;;;;;;;;;;5081818;28;20036;-66